Aviation Digital Data Service (ADDS)

Output produced by METARs form (1945 UTC 23 November 2014)
found at http://www.aviationweather.gov/adds/metars/
 
KMDT 231856Z 13007KT 10SM FEW080 SCT180 BKN250 12/M03 A3009 RMK AO2 SLP192 T01221028
KMDT 231756Z 13004KT 10SM FEW080 BKN250 11/M04 A3011 RMK AO2 SLP199 T01111039 10111 21006 56032
KMDT 231656Z 11004KT 10SM FEW100 BKN250 09/M05 A3014 RMK AO2 SLP208 T00941050
KMDT 231556Z 17003KT 10SM FEW110 BKN250 07/M04 A3018 RMK AO2 SLP222 T00721044
KMDT 231456Z 00000KT 9SM FEW080 FEW110 BKN250 05/M04 A3021 RMK AO2 SLP233 T00501039 50002
KMDT 231356Z 10003KT 8SM FEW080 BKN110 BKN250 03/M04 A3022 RMK AO2 SLP237 T00281044
KMDT 231256Z 08003KT 7SM SCT075 BKN110 BKN160 01/M04 A3022 RMK AO2 SLP237 T00111039
KMDT 231156Z 10003KT 8SM FEW040 SCT100 SCT150 M01/M05 A3020 RMK AO2 SLP232 T10061050 10039 21011 51012
KMDT 231056Z 00000KT 9SM SCT100 M01/M04 A3019 RMK AO2 SLP226 T10061039
KMDT 230956Z 14003KT 10SM FEW080 01/M03 A3018 RMK AO2 SLP224 T00111033
KMDT 230856Z 03003KT 10SM FEW080 02/M05 A3017 RMK AO2 SLP219 T00221050 56007
KMDT 230756Z 13005KT 10SM BKN090 OVC110 03/M06 A3017 RMK AO2 SLP220 T00281056
KMDT 230656Z 09006KT 10SM BKN120 03/M07 A3018 RMK AO2 SLP222 T00281067
KMDT 230556Z 11004KT 10SM SCT110 02/M07 A3019 RMK AO2 SLP226 T00221067 10039 21017 58005
KMDT 230456Z 00000KT 10SM BKN110 BKN250 03/M07 A3021 RMK AO2 SLP232 T00281067 400561083
KMDT 230356Z 09006KT 10SM SCT110 01/M06 A3021 RMK AO2 SLP236 T00061056
KMDT 230256Z 00000KT 10SM BKN110 BKN250 01/M04 A3020 RMK AO2 SLP232 T00061039 58017
KMDT 230156Z 10003KT 10SM SCT075 SCT110 BKN250 M01/M06 A3022 RMK AO2 SLP240 T10111061
KMDT 230056Z 10003KT 10SM FEW070 SCT090 BKN250 00/M06 A3024 RMK AO2 SLP244 T00001061
KMDT 222356Z 13003KT 10SM BKN070 OVC250 02/M06 A3025 RMK AO2 SLP250 T00221061 10056 20022 58007
KMDT 222256Z 00000KT 10SM SCT045 BKN065 BKN080 OVC250 04/M07 A3027 RMK AO2 SLP254 T00441072
KMDT 222156Z 24005KT 10SM BKN045 BKN060 OVC220 05/M09 A3027 RMK AO2 SLP254 T00501089
KMDT 222056Z VRB05KT 10SM BKN045 BKN060 OVC220 05/M08 A3027 RMK AO2 SLP256 T00501083 56022
KMDT 221956Z 20007KT 10SM BKN050 BKN080 OVC220 05/M09 A3028 RMK AO2 SLP259 T00501089
KMDT 221856Z 19005KT 10SM BKN050 BKN080 OVC200 04/M09 A3030 RMK AO2 SLP266 T00441094
KMDT 221756Z 27004KT 10SM SCT060 BKN080 OVC250 04/M10 A3034 RMK AO2 SLP278 T00441100 10056 21072 56040
KMDT 221656Z 20007KT 160V230 10SM BKN085 BKN250 05/M09 A3036 RMK AO2 SLP287 T00501094
KMDT 221556Z 08003KT 10SM FEW250 01/M09 A3042 RMK AO2 SLP306 T00111094
KMDT 221456Z 15004KT 10SM FEW200 M01/M09 A3046 RMK AO2 SLP319 T10061094 58008
KMDT 221356Z 13005KT 9SM FEW150 FEW250 M03/M09 A3047 RMK AO2 SLP325 T10331089
KMDT 221256Z 11005KT 7SM FEW080 SCT250 M06/M09 A3048 RMK AO2 SLP328 T10611094
KMDT 221156Z 09005KT 8SM FEW080 M08/M11 A3048 RMK AO2 SLP327 T10781111 11056 21083 58007
KMDT 221056Z 00000KT 9SM CLR M08/M11 A3049 RMK AO2 SLP331 T10831111
KMDT 220956Z 00000KT 9SM CLR M08/M11 A3050 RMK AO2 SLP332 T10831111
KMDT 220856Z 00000KT 10SM CLR M07/M10 A3050 RMK AO2 SLP334 T10721100 56004
KMDT 220756Z 00000KT 10SM CLR M07/M11 A3050 RMK AO2 SLP335 T10671106